Terminal Aerodrome Forecast
Issued by NWS Cleveland, OH

Home | Current Version | Previous Version | Text Only | Print | Product List | Glossary On
Versions: 1 2 3 4 5 6 7 8 9 10 11 12 13 14 15 16 17
653
FTUS41 KCLE 100525
TAFMFD
TAF
KMFD 100525Z 1006/1106 24010KT P6SM OVC040
      TEMPO 1006/1008 5SM -SHSN OVC015
     FM101100 24007KT P6SM OVC060
     FM102000 24009KT P6SM OVC250
     FM102300 23006KT P6SM OVC080
     FM110400 22005KT 2SM -SN OVC015=

USA.gov is the U.S. government's official web portal to all federal, state and local government web resources and services.